Time;durP1;ratioP1;P1;durP2;ratioP2;P2;SDS_P1;SDS_P2;PMS_P1;PMS_P2;Temp;Humidity;BMP_temperature;BMP_pressure;BME280_temperature;BME280_humidity;BME280_pressure;Samples;Min_cycle;Max_cycle;Signal;HPM_P1;HPM_P2
2022/11/01 00:00:09;;;;;;;;;;;17.60;64.30;;;;;;5069373;28;19913;-83
2022/11/01 00:02:35;;;;;;;;;;;17.70;64.30;;;;;;5064823;28;19921;-83
2022/11/01 00:05:00;;;;;;;;;;;17.70;64.20;;;;;;5067142;28;19920;-82
2022/11/01 00:07:26;;;;;;;;;;;17.90;64.00;;;;;;5059079;28;19917;-84
2022/11/01 00:09:51;;;;;;;;;;;18.00;63.70;;;;;;5067816;28;19920;-83
2022/11/01 00:12:16;;;;;;;;;;;18.00;63.30;;;;;;5067481;28;19912;-83
2022/11/01 00:14:42;;;;;;;;;;;18.00;63.60;;;;;;5071062;28;19912;-82
2022/11/01 00:17:07;;;;;;;;;;;18.00;63.90;;;;;;5070236;28;19916;-83
2022/11/01 00:19:33;;;;;;;;;;;18.10;63.60;;;;;;5074790;28;19913;-85
2022/11/01 00:21:58;;;;;;;;;;;18.00;63.80;;;;;;5076213;28;19924;-82
2022/11/01 00:24:24;;;;;;;;;;;18.10;63.60;;;;;;5073875;28;19960;-85
2022/11/01 00:26:49;;;;;;;;;;;17.90;64.20;;;;;;5068305;28;19916;-85
2022/11/01 00:29:15;;;;;;;;;;;17.80;64.70;;;;;;5081608;28;19969;-82
2022/11/01 00:31:40;;;;;;;;;;;17.90;64.30;;;;;;5081687;28;19923;-84
2022/11/01 00:34:06;;;;;;;;;;;17.90;64.40;;;;;;5068677;28;19912;-85
2022/11/01 00:36:32;;;;;;;;;;;17.90;64.40;;;;;;5069820;28;19916;-83
2022/11/01 00:38:57;;;;;;;;;;;17.80;64.70;;;;;;5065374;28;19928;-82
2022/11/01 00:41:23;;;;;;;;;;;17.80;65.00;;;;;;5060654;28;19921;-83
2022/11/01 00:43:48;;;;;;;;;;;17.70;65.60;;;;;;5064013;28;19920;-82
2022/11/01 00:46:14;;;;;;;;;;;17.70;65.50;;;;;;5062311;28;19925;-85
2022/11/01 00:48:39;;;;;;;;;;;17.70;65.80;;;;;;5063688;28;20390;-83
2022/11/01 00:51:05;;;;;;;;;;;17.70;65.90;;;;;;5067230;28;19920;-83
2022/11/01 00:53:30;;;;;;;;;;;17.70;66.10;;;;;;5061447;28;20278;-85
2022/11/01 00:56:00;;;;;;;;;;;17.70;66.60;;;;;;5075757;28;19922;-84
2022/11/01 00:58:25;;;;;;;;;;;17.60;66.60;;;;;;5066248;28;19920;-81
2022/11/01 01:00:51;;;;;;;;;;;17.70;66.90;;;;;;5065042;28;19969;-83
2022/11/01 01:03:16;;;;;;;;;;;17.70;67.50;;;;;;5067314;28;19920;-82
2022/11/01 01:05:42;;;;;;;;;;;17.70;68.50;;;;;;5059039;28;19923;-83
2022/11/01 01:08:07;;;;;;;;;;;17.60;69.10;;;;;;5065356;28;20467;-85
2022/11/01 01:10:32;;;;;;;;;;;17.50;70.20;;;;;;5061907;28;19920;-84
2022/11/01 01:12:58;;;;;;;;;;;17.50;70.40;;;;;;5067630;28;20019;-84
2022/11/01 01:15:26;;;;;;;;;;;17.50;70.60;;;;;;5067116;28;20269;-85
2022/11/01 01:17:52;;;;;;;;;;;17.40;71.60;;;;;;5064965;28;20327;-85
2022/11/01 01:20:19;;;;;;;;;;;17.40;72.00;;;;;;5084258;28;19925;-84
2022/11/01 01:22:44;;;;;;;;;;;17.30;72.20;;;;;;5064504;28;19920;-84
2022/11/01 01:25:10;;;;;;;;;;;17.30;72.80;;;;;;5068087;28;19912;-84
2022/11/01 01:27:36;;;;;;;;;;;17.10;73.30;;;;;;5066186;28;20367;-84
2022/11/01 01:30:03;;;;;;;;;;;17.10;73.90;;;;;;5064104;28;19924;-84
2022/11/01 01:32:28;;;;;;;;;;;17.10;73.90;;;;;;5061679;28;19922;-84
2022/11/01 01:34:54;;;;;;;;;;;16.90;74.30;;;;;;5061674;28;20042;-85
2022/11/01 01:37:19;;;;;;;;;;;16.80;74.60;;;;;;5057286;28;19912;-84
2022/11/01 01:39:44;;;;;;;;;;;16.70;75.10;;;;;;5056859;28;20040;-84
2022/11/01 01:42:27;;;;;;;;;;;16.80;75.20;;;;;;5063328;28;19927;-84
2022/11/01 01:44:53;;;;;;;;;;;16.70;75.30;;;;;;5066749;28;20276;-84
2022/11/01 01:47:35;;;;;;;;;;;16.60;75.50;;;;;;5073341;28;19977;-85
2022/11/01 01:50:07;;;;;;;;;;;16.70;75.20;;;;;;5072002;28;20424;-84
2022/11/01 01:52:39;;;;;;;;;;;16.70;75.30;;;;;;5088908;28;19959;-83
2022/11/01 01:55:06;;;;;;;;;;;16.70;75.10;;;;;;5069021;28;19912;-83
2022/11/01 01:57:32;;;;;;;;;;;16.70;75.00;;;;;;5067024;28;19936;-84
2022/11/01 01:59:57;;;;;;;;;;;16.60;75.00;;;;;;5071656;28;19920;-84
2022/11/01 02:02:23;;;;;;;;;;;16.70;74.90;;;;;;5065610;28;19919;-84
2022/11/01 02:04:54;;;;;;;;;;;16.60;74.70;;;;;;5067878;28;20386;-83
2022/11/01 02:07:19;;;;;;;;;;;16.60;75.10;;;;;;5066420;28;19970;-85
2022/11/01 02:09:45;;;;;;;;;;;16.70;75.00;;;;;;5069915;28;19917;-84
2022/11/01 02:12:11;;;;;;;;;;;16.70;74.90;;;;;;5073898;28;19918;-84
2022/11/01 02:14:38;;;;;;;;;;;16.80;74.90;;;;;;5069659;28;19982;-84
2022/11/01 02:17:12;;;;;;;;;;;16.80;74.80;;;;;;5068172;28;19912;-84
2022/11/01 02:22:28;;;;;;;;;;;16.80;74.90;;;;;;5048067;28;19968;-81
2022/11/01 02:25:09;;;;;;;;;;;16.80;74.80;;;;;;5052645;28;19979;-81
2022/11/01 02:27:35;;;;;;;;;;;16.90;74.50;;;;;;5052624;28;19917;-81
2022/11/01 02:30:11;;;;;;;;;;;16.80;75.10;;;;;;5046786;28;21187;-81
2022/11/01 02:32:55;;;;;;;;;;;16.90;74.30;;;;;;5052584;28;19921;-81
2022/11/01 02:35:40;;;;;;;;;;;16.90;74.30;;;;;;5044388;28;19913;-81
2022/11/01 02:38:24;;;;;;;;;;;16.90;74.40;;;;;;5050063;28;20008;-80
2022/11/01 02:40:53;;;;;;;;;;;16.80;74.30;;;;;;5051495;28;19920;-80
2022/11/01 02:43:21;;;;;;;;;;;16.80;74.50;;;;;;5054546;28;19917;-80
2022/11/01 02:45:49;;;;;;;;;;;16.80;74.50;;;;;;5050537;28;19920;-80
2022/11/01 02:48:17;;;;;;;;;;;16.70;74.50;;;;;;5049049;28;19960;-80
2022/11/01 02:50:45;;;;;;;;;;;16.70;74.60;;;;;;5053776;28;20390;-80
2022/11/01 02:53:10;;;;;;;;;;;16.80;74.40;;;;;;5050403;28;19913;-80
2022/11/01 02:55:36;;;;;;;;;;;16.70;74.60;;;;;;5047967;28;20279;-80
2022/11/01 02:58:17;;;;;;;;;;;16.90;74.20;;;;;;5047867;28;19917;-80
2022/11/01 03:00:44;;;;;;;;;;;17.00;74.00;;;;;;5049896;28;20308;-81
2022/11/01 03:03:13;;;;;;;;;;;17.00;73.70;;;;;;5047720;28;19956;-81
2022/11/01 03:05:38;;;;;;;;;;;17.00;73.80;;;;;;5050712;28;20549;-81
2022/11/01 03:08:06;;;;;;;;;;;17.00;74.00;;;;;;5051054;28;20012;-81
2022/11/01 03:10:35;;;;;;;;;;;17.00;73.80;;;;;;5045152;28;19920;-81
2022/11/01 03:13:11;;;;;;;;;;;17.10;73.90;;;;;;5042381;28;19921;-80
2022/11/01 03:15:40;;;;;;;;;;;17.10;73.50;;;;;;5046310;28;19970;-81
2022/11/01 03:18:11;;;;;;;;;;;17.00;73.60;;;;;;5050014;28;19913;-81
2022/11/01 03:20:48;;;;;;;;;;;16.90;74.20;;;;;;5046310;28;19996;-80
2022/11/01 03:23:27;;;;;;;;;;;16.90;74.50;;;;;;5049736;28;20351;-80
2022/11/01 03:25:54;;;;;;;;;;;17.00;74.50;;;;;;5048890;28;19916;-81
2022/11/01 03:28:29;;;;;;;;;;;16.80;75.10;;;;;;5042975;28;20321;-80
2022/11/01 03:30:55;;;;;;;;;;;16.70;75.30;;;;;;5045417;28;19982;-81
2022/11/01 03:33:21;;;;;;;;;;;16.80;75.30;;;;;;5051383;28;19913;-80
2022/11/01 03:35:48;;;;;;;;;;;16.80;75.30;;;;;;5045436;28;19927;-80
2022/11/01 03:38:18;;;;;;;;;;;16.70;75.40;;;;;;5044415;28;20368;-80
2022/11/01 03:40:48;;;;;;;;;;;16.80;75.60;;;;;;5034250;28;19913;-80
2022/11/01 03:43:15;;;;;;;;;;;16.80;75.60;;;;;;5043625;28;20283;-80
2022/11/01 03:45:41;;;;;;;;;;;16.70;75.90;;;;;;5052325;28;19923;-83
2022/11/01 03:48:07;;;;;;;;;;;16.70;76.00;;;;;;5047841;28;19928;-81
2022/11/01 03:50:32;;;;;;;;;;;16.60;76.10;;;;;;5043561;28;19913;-80
2022/11/01 03:52:58;;;;;;;;;;;16.60;76.30;;;;;;5048827;28;19974;-80
2022/11/01 03:55:24;;;;;;;;;;;16.60;76.40;;;;;;5061283;28;19913;-81
2022/11/01 03:57:50;;;;;;;;;;;16.60;76.60;;;;;;5052843;28;19913;-81
2022/11/01 04:00:17;;;;;;;;;;;16.60;76.50;;;;;;5065483;28;19916;-81
2022/11/01 04:02:42;;;;;;;;;;;16.60;76.40;;;;;;5044699;28;19947;-81
2022/11/01 04:05:09;;;;;;;;;;;16.60;76.40;;;;;;5055904;28;20652;-81
2022/11/01 04:07:34;;;;;;;;;;;16.70;76.60;;;;;;5055225;28;19917;-81
2022/11/01 04:10:00;;;;;;;;;;;16.70;76.20;;;;;;5053684;28;19913;-80
2022/11/01 04:12:25;;;;;;;;;;;16.80;76.10;;;;;;5054376;28;19913;-81
2022/11/01 04:20:32;;;;;;;;;;;16.80;76.40;;;;;;5051782;28;19935;-80
2022/11/01 04:23:01;;;;;;;;;;;16.80;76.40;;;;;;5054051;28;19923;-81
2022/11/01 04:25:26;;;;;;;;;;;16.80;76.30;;;;;;5057265;28;19960;-81
2022/11/01 04:27:51;;;;;;;;;;;16.90;76.10;;;;;;5051257;28;19921;-80
2022/11/01 04:30:17;;;;;;;;;;;16.80;76.30;;;;;;5047323;28;19913;-80
2022/11/01 04:32:43;;;;;;;;;;;16.80;76.40;;;;;;5046491;28;19919;-81
2022/11/01 04:35:11;;;;;;;;;;;17.00;76.00;;;;;;5048685;28;19923;-80
2022/11/01 04:37:36;;;;;;;;;;;16.90;76.20;;;;;;5048751;28;19909;-79
2022/11/01 04:40:02;;;;;;;;;;;16.80;76.40;;;;;;5049893;28;19916;-80
2022/11/01 04:42:27;;;;;;;;;;;16.80;76.80;;;;;;5046001;28;19952;-81
2022/11/01 04:44:53;;;;;;;;;;;16.80;76.60;;;;;;5047832;28;20279;-80
2022/11/01 04:47:18;;;;;;;;;;;16.90;76.60;;;;;;5053308;28;19943;-80
2022/11/01 04:49:44;;;;;;;;;;;16.80;76.80;;;;;;5049149;28;19966;-81
2022/11/01 04:52:09;;;;;;;;;;;16.80;76.90;;;;;;5047758;28;20391;-81
2022/11/01 04:54:35;;;;;;;;;;;16.70;77.20;;;;;;5042268;28;20341;-80
2022/11/01 04:57:00;;;;;;;;;;;16.70;77.20;;;;;;5047768;28;19943;-80
2022/11/01 04:59:25;;;;;;;;;;;16.80;77.10;;;;;;5046266;28;20572;-81
2022/11/01 05:01:51;;;;;;;;;;;16.70;77.30;;;;;;5048483;28;19917;-80
2022/11/01 05:04:16;;;;;;;;;;;16.60;77.70;;;;;;5047989;28;19927;-80
2022/11/01 05:06:42;;;;;;;;;;;16.60;77.70;;;;;;5049296;28;20015;-80
2022/11/01 05:09:07;;;;;;;;;;;16.60;77.60;;;;;;5048895;28;19920;-80
2022/11/01 05:11:33;;;;;;;;;;;16.60;77.80;;;;;;5052609;28;19913;-80
2022/11/01 05:13:58;;;;;;;;;;;16.60;77.80;;;;;;5046482;28;20039;-82
2022/11/01 05:16:24;;;;;;;;;;;16.60;78.00;;;;;;5040779;28;19956;-79
2022/11/01 05:18:49;;;;;;;;;;;16.70;77.60;;;;;;5064803;28;19917;-80
2022/11/01 05:21:15;;;;;;;;;;;16.70;77.70;;;;;;5052119;28;19960;-81
2022/11/01 05:23:40;;;;;;;;;;;16.60;77.80;;;;;;5052173;28;20453;-80
2022/11/01 05:26:06;;;;;;;;;;;16.80;77.50;;;;;;5050814;28;19925;-80
2022/11/01 05:28:31;;;;;;;;;;;16.80;77.70;;;;;;5049658;28;19917;-81
2022/11/01 05:30:57;;;;;;;;;;;16.90;77.40;;;;;;5045277;28;20350;-80
2022/11/01 05:33:22;;;;;;;;;;;16.90;77.40;;;;;;5050854;28;19913;-81
2022/11/01 05:35:48;;;;;;;;;;;16.90;77.20;;;;;;5052024;28;19966;-82
2022/11/01 05:38:13;;;;;;;;;;;16.90;77.20;;;;;;5050580;28;20380;-81
2022/11/01 05:40:39;;;;;;;;;;;16.90;77.50;;;;;;5050380;28;19920;-80
2022/11/01 05:43:04;;;;;;;;;;;16.80;77.60;;;;;;5048067;28;19964;-80
2022/11/01 05:45:30;;;;;;;;;;;16.80;77.90;;;;;;5048247;28;19917;-80
2022/11/01 05:48:00;;;;;;;;;;;16.80;77.70;;;;;;5054171;28;19919;-80
2022/11/01 05:50:25;;;;;;;;;;;16.80;77.90;;;;;;5044097;28;19929;-81
2022/11/01 05:52:51;;;;;;;;;;;16.70;78.00;;;;;;5046654;28;19976;-81
2022/11/01 05:55:16;;;;;;;;;;;16.70;78.20;;;;;;5050186;28;19913;-79
2022/11/01 05:57:42;;;;;;;;;;;16.70;78.10;;;;;;5051218;28;19920;-81
2022/11/01 06:00:07;;;;;;;;;;;16.80;77.90;;;;;;5050588;28;19928;-80
2022/11/01 06:02:33;;;;;;;;;;;16.80;77.80;;;;;;5050260;28;19913;-82
2022/11/01 06:04:59;;;;;;;;;;;16.70;78.00;;;;;;5047580;28;19960;-81
2022/11/01 06:07:25;;;;;;;;;;;16.80;77.60;;;;;;5052100;28;21365;-81
2022/11/01 06:09:51;;;;;;;;;;;16.80;77.60;;;;;;5053988;28;19920;-82
2022/11/01 06:12:16;;;;;;;;;;;16.80;77.70;;;;;;5055442;28;19917;-80
2022/11/01 06:14:41;;;;;;;;;;;16.80;77.10;;;;;;5049705;28;20303;-82
2022/11/01 06:17:11;;;;;;;;;;;16.80;76.80;;;;;;5051804;28;19956;-80
2022/11/01 06:19:37;;;;;;;;;;;16.90;75.90;;;;;;5051456;28;20395;-83
2022/11/01 06:22:02;;;;;;;;;;;16.90;75.40;;;;;;5047418;28;19921;-80
2022/11/01 06:24:28;;;;;;;;;;;16.90;75.50;;;;;;5046480;28;19921;-79
2022/11/01 06:26:53;;;;;;;;;;;16.80;75.60;;;;;;5048802;28;19916;-81
2022/11/01 06:29:19;;;;;;;;;;;16.90;73.90;;;;;;5049987;28;20381;-81
2022/11/01 06:31:44;;;;;;;;;;;16.90;73.40;;;;;;5048357;28;19919;-81
2022/11/01 06:34:10;;;;;;;;;;;16.90;73.00;;;;;;5067943;28;19912;-80
2022/11/01 06:36:35;;;;;;;;;;;16.90;73.00;;;;;;5066306;28;19948;-80
2022/11/01 06:39:00;;;;;;;;;;;17.00;72.90;;;;;;5062874;28;19935;-80
2022/11/01 06:41:26;;;;;;;;;;;17.00;73.00;;;;;;5064760;28;19936;-82
2022/11/01 06:43:51;;;;;;;;;;;17.00;72.90;;;;;;5064075;28;19921;-80
2022/11/01 06:46:17;;;;;;;;;;;16.90;73.20;;;;;;5051165;28;19924;-82
2022/11/01 06:48:42;;;;;;;;;;;16.90;73.20;;;;;;5045871;28;19917;-81
2022/11/01 06:51:08;;;;;;;;;;;16.80;73.10;;;;;;5048906;28;20023;-80
2022/11/01 06:53:33;;;;;;;;;;;16.80;72.80;;;;;;5049686;28;19912;-82
2022/11/01 06:55:59;;;;;;;;;;;16.90;72.20;;;;;;5054598;28;19913;-82
2022/11/01 06:58:25;;;;;;;;;;;16.90;72.40;;;;;;5046472;28;19921;-82
2022/11/01 07:00:50;;;;;;;;;;;16.90;72.20;;;;;;5051506;28;19932;-81
2022/11/01 07:03:16;;;;;;;;;;;16.90;72.10;;;;;;5043232;28;19920;-83
2022/11/01 07:05:41;;;;;;;;;;;16.90;72.10;;;;;;5043551;28;20418;-81
2022/11/01 07:08:08;;;;;;;;;;;16.80;71.10;;;;;;5046999;28;20719;-83
2022/11/01 07:10:34;;;;;;;;;;;16.70;71.30;;;;;;5048875;28;19987;-83
2022/11/01 07:13:01;;;;;;;;;;;16.60;71.00;;;;;;5050024;28;19912;-82
2022/11/01 07:15:27;;;;;;;;;;;16.60;71.00;;;;;;5045861;28;19964;-82
2022/11/01 07:17:56;;;;;;;;;;;16.50;70.10;;;;;;5044913;28;19971;-82
2022/11/01 07:20:22;;;;;;;;;;;16.40;68.30;;;;;;5044642;28;20028;-82
2022/11/01 07:22:54;;;;;;;;;;;16.30;67.90;;;;;;5044528;28;20003;-82
2022/11/01 07:25:20;;;;;;;;;;;16.20;66.50;;;;;;5043103;28;19913;-81
2022/11/01 07:27:45;;;;;;;;;;;16.10;66.60;;;;;;5041066;28;19917;-82
2022/11/01 07:30:11;;;;;;;;;;;16.00;66.80;;;;;;5045520;28;19920;-81
2022/11/01 07:32:36;;;;;;;;;;;15.90;66.50;;;;;;5046283;28;20395;-83
2022/11/01 07:35:02;;;;;;;;;;;15.80;66.70;;;;;;5044659;28;19923;-82
2022/11/01 07:37:28;;;;;;;;;;;15.70;66.90;;;;;;5050911;28;19916;-83
2022/11/01 07:39:53;;;;;;;;;;;15.70;65.50;;;;;;5045994;28;19966;-80
2022/11/01 07:42:19;;;;;;;;;;;15.60;65.50;;;;;;5042903;28;20331;-82
2022/11/01 07:44:44;;;;;;;;;;;15.60;65.70;;;;;;5056688;28;19924;-82
2022/11/01 07:47:10;;;;;;;;;;;15.60;65.40;;;;;;5053789;28;19959;-83
2022/11/01 07:49:35;;;;;;;;;;;15.50;65.40;;;;;;5044507;28;19913;-82
2022/11/01 07:52:03;;;;;;;;;;;15.40;65.50;;;;;;5040219;28;20399;-83
2022/11/01 07:54:29;;;;;;;;;;;15.30;65.50;;;;;;5042830;28;19929;-83
2022/11/01 07:56:54;;;;;;;;;;;15.40;65.60;;;;;;5044106;28;20003;-82
2022/11/01 07:59:19;;;;;;;;;;;15.30;65.50;;;;;;5056369;28;19920;-84
2022/11/01 08:01:45;;;;;;;;;;;15.30;65.70;;;;;;5053038;28;20004;-83
2022/11/01 08:04:10;;;;;;;;;;;15.30;65.40;;;;;;5050883;28;19917;-83
2022/11/01 08:06:36;;;;;;;;;;;15.20;65.40;;;;;;5051304;28;19921;-82
2022/11/01 08:09:01;;;;;;;;;;;15.30;65.30;;;;;;5055337;28;19913;-81
2022/11/01 08:11:27;;;;;;;;;;;15.20;65.60;;;;;;5051236;28;19921;-82
2022/11/01 08:13:52;;;;;;;;;;;15.30;65.80;;;;;;5062778;28;19927;-84
2022/11/01 08:16:18;;;;;;;;;;;15.30;65.60;;;;;;5060754;28;19920;-83
2022/11/01 08:18:43;;;;;;;;;;;15.30;65.80;;;;;;5046217;28;19912;-82
2022/11/01 08:21:10;;;;;;;;;;;15.30;66.00;;;;;;5065801;23;19929;-86
2022/11/01 08:23:36;;;;;;;;;;;15.40;65.90;;;;;;5019251;28;19914;-85
2022/11/01 08:26:03;;;;;;;;;;;15.30;66.00;;;;;;5005053;28;19925;-86
2022/11/01 08:28:29;;;;;;;;;;;15.30;66.30;;;;;;5011847;28;19920;-86
2022/11/01 08:30:55;;;;;;;;;;;15.30;66.40;;;;;;5014859;28;19917;-85
2022/11/01 08:33:20;;;;;;;;;;;15.30;66.60;;;;;;5023516;28;19920;-85
2022/11/01 08:35:46;;;;;;;;;;;15.30;66.30;;;;;;5025457;28;19917;-86
2022/11/01 08:38:12;;;;;;;;;;;15.40;66.40;;;;;;5024914;28;19996;-86
2022/11/01 08:40:39;;;;;;;;;;;15.40;66.40;;;;;;5033987;28;19947;-86
2022/11/01 08:43:04;;;;;;;;;;;15.40;66.60;;;;;;5012233;28;19921;-86
2022/11/01 08:45:30;;;;;;;;;;;15.40;66.60;;;;;;5023055;28;19939;-87
2022/11/01 08:48:04;;;;;;;;;;;15.30;66.50;;;;;;5027312;28;19940;-87
2022/11/01 08:50:32;;;;;;;;;;;15.50;65.90;;;;;;5021981;28;19913;-85
2022/11/01 08:52:58;;;;;;;;;;;15.50;65.50;;;;;;5029616;28;19917;-85
2022/11/01 08:55:24;;;;;;;;;;;15.50;65.50;;;;;;5020590;28;19975;-85
2022/11/01 08:57:49;;;;;;;;;;;15.50;64.90;;;;;;5018835;28;19936;-85
2022/11/01 09:00:15;;;;;;;;;;;15.50;63.40;;;;;;5031252;28;20393;-84
2022/11/01 09:02:41;;;;;;;;;;;15.50;63.50;;;;;;5026617;28;19914;-84
2022/11/01 09:05:07;;;;;;;;;;;15.50;63.10;;;;;;5023469;28;19932;-85
2022/11/01 09:07:36;;;;;;;;;;;15.50;63.10;;;;;;5032585;28;19963;-84
2022/11/01 09:10:02;;;;;;;;;;;15.50;62.80;;;;;;5025726;28;19920;-84
2022/11/01 09:12:27;;;;;;;;;;;15.50;63.00;;;;;;5023576;28;19913;-84
2022/11/01 09:14:53;;;;;;;;;;;15.50;62.80;;;;;;5039504;28;19917;-84
2022/11/01 09:17:18;;;;;;;;;;;15.50;62.30;;;;;;5032170;28;19917;-84
2022/11/01 09:19:44;;;;;;;;;;;15.50;61.70;;;;;;5024108;28;20002;-84
2022/11/01 09:22:09;;;;;;;;;;;15.50;60.90;;;;;;5028026;28;19925;-85
2022/11/01 09:24:34;;;;;;;;;;;15.60;60.30;;;;;;5038478;28;19909;-84
2022/11/01 09:27:00;;;;;;;;;;;15.50;59.50;;;;;;5032365;28;19924;-84
2022/11/01 09:29:26;;;;;;;;;;;15.50;59.50;;;;;;5047938;28;19913;-84
2022/11/01 09:31:52;;;;;;;;;;;15.40;58.50;;;;;;5022700;28;20480;-84
2022/11/01 09:34:18;;;;;;;;;;;15.50;58.70;;;;;;5027367;28;20007;-85
2022/11/01 09:36:43;;;;;;;;;;;15.50;57.70;;;;;;5023123;28;19963;-84
2022/11/01 09:39:09;;;;;;;;;;;15.40;57.60;;;;;;5030947;28;19917;-84
2022/11/01 09:41:37;;;;;;;;;;;15.40;57.60;;;;;;5027624;28;20391;-84
2022/11/01 09:44:04;;;;;;;;;;;15.40;57.80;;;;;;5027254;28;19919;-84
2022/11/01 09:46:31;;;;;;;;;;;15.50;57.10;;;;;;5030326;28;19933;-84
2022/11/01 09:48:58;;;;;;;;;;;15.50;56.90;;;;;;5042044;28;20004;-84
2022/11/01 09:51:24;;;;;;;;;;;15.50;56.90;;;;;;5031843;28;19913;-84
2022/11/01 09:53:52;;;;;;;;;;;15.50;57.30;;;;;;5038317;28;19944;-83
2022/11/01 09:56:23;;;;;;;;;;;15.50;57.50;;;;;;5032595;28;19917;-82
2022/11/01 09:59:01;;;;;;;;;;;15.60;57.20;;;;;;5037558;28;19925;-83
2022/11/01 10:01:26;;;;;;;;;;;15.50;57.00;;;;;;5024436;28;19921;-83
2022/11/01 10:03:58;;;;;;;;;;;15.50;57.60;;;;;;5022212;28;19909;-83
2022/11/01 10:06:30;;;;;;;;;;;15.60;57.30;;;;;;5033613;28;19927;-83
2022/11/01 10:09:08;;;;;;;;;;;15.60;57.30;;;;;;5049583;28;19913;-83
2022/11/01 10:11:51;;;;;;;;;;;15.70;57.10;;;;;;5029891;28;19991;-83
2022/11/01 10:14:35;;;;;;;;;;;15.70;57.00;;;;;;5045529;28;19920;-84
2022/11/01 10:17:12;;;;;;;;;;;15.70;57.10;;;;;;5033909;28;19920;-83
2022/11/01 10:19:38;;;;;;;;;;;15.70;57.20;;;;;;5031352;28;19952;-84
2022/11/01 10:22:06;;;;;;;;;;;15.70;57.30;;;;;;5030631;28;19939;-83
2022/11/01 10:24:42;;;;;;;;;;;15.80;57.30;;;;;;5032282;28;19920;-83
2022/11/01 10:27:18;;;;;;;;;;;15.80;57.00;;;;;;5037424;28;20007;-84
2022/11/01 10:29:59;;;;;;;;;;;15.90;56.60;;;;;;5025612;28;19920;-84
2022/11/01 10:32:29;;;;;;;;;;;15.90;57.30;;;;;;5045256;28;19928;-84
2022/11/01 10:34:56;;;;;;;;;;;15.90;57.00;;;;;;5034050;28;19943;-85
2022/11/01 10:37:34;;;;;;;;;;;15.90;56.60;;;;;;5032197;28;20342;-84
2022/11/01 10:40:08;;;;;;;;;;;15.90;56.80;;;;;;5032865;28;19917;-85
2022/11/01 10:42:33;;;;;;;;;;;15.90;56.80;;;;;;5029423;28;20412;-85
2022/11/01 10:45:00;;;;;;;;;;;16.00;56.50;;;;;;5041843;28;19955;-85
2022/11/01 10:47:27;;;;;;;;;;;16.00;56.70;;;;;;5024769;28;19972;-86
2022/11/01 10:49:55;;;;;;;;;;;16.00;56.70;;;;;;5022506;28;19917;-87
2022/11/01 10:52:23;;;;;;;;;;;16.10;56.40;;;;;;5028478;28;19913;-86
2022/11/01 10:54:50;;;;;;;;;;;16.10;56.50;;;;;;5031919;28;19918;-84
2022/11/01 10:57:25;;;;;;;;;;;16.10;56.70;;;;;;5030974;28;19913;-85
2022/11/01 10:59:52;;;;;;;;;;;16.10;56.70;;;;;;5033032;28;20404;-84
2022/11/01 11:02:22;;;;;;;;;;;16.20;57.20;;;;;;5024150;28;19971;-86
2022/11/01 11:04:48;;;;;;;;;;;16.30;56.60;;;;;;5031925;28;20020;-87
2022/11/01 11:07:15;;;;;;;;;;;16.30;56.60;;;;;;5023273;28;19917;-88
2022/11/01 11:09:41;;;;;;;;;;;16.30;56.50;;;;;;5024301;28;19919;-88
2022/11/01 11:12:26;;;;;;;;;;;16.30;56.70;;;;;;5027053;28;19913;-87
2022/11/01 11:15:17;;;;;;;;;;;16.30;56.70;;;;;;5025238;28;19928;-87
2022/11/01 11:17:48;;;;;;;;;;;16.30;56.80;;;;;;5023988;28;20004;-89
2022/11/01 11:20:19;;;;;;;;;;;16.30;57.50;;;;;;5023403;28;19917;-87
2022/11/01 11:22:55;;;;;;;;;;;16.40;57.40;;;;;;5023422;28;19917;-90
2022/11/01 11:25:29;;;;;;;;;;;16.40;57.10;;;;;;5026415;28;20016;-89
2022/11/01 11:27:57;;;;;;;;;;;16.40;56.80;;;;;;5026437;28;19976;-88
2022/11/01 11:30:31;;;;;;;;;;;16.30;57.20;;;;;;5024340;28;19918;-88
2022/11/01 11:32:57;;;;;;;;;;;16.40;57.10;;;;;;5041361;28;20008;-86
2022/11/01 11:35:25;;;;;;;;;;;16.30;57.60;;;;;;5031313;28;19971;-88
2022/11/01 11:37:52;;;;;;;;;;;16.40;56.50;;;;;;5033719;28;19916;-88
2022/11/01 11:40:27;;;;;;;;;;;16.40;56.30;;;;;;5028439;28;19920;-87
2022/11/01 11:42:54;;;;;;;;;;;16.50;56.70;;;;;;5031137;28;19917;-88
2022/11/01 11:45:23;;;;;;;;;;;16.40;57.30;;;;;;5021623;28;19913;-86
2022/11/01 11:47:49;;;;;;;;;;;16.50;56.40;;;;;;5023566;28;20440;-91
2022/11/01 11:50:22;;;;;;;;;;;16.60;56.40;;;;;;5023912;28;20386;-91
2022/11/01 11:53:17;;;;;;;;;;;16.50;56.00;;;;;;5028882;28;19921;-88
2022/11/01 11:56:12;;;;;;;;;;;;;;;;;;;;;
2022/11/01 11:59:11;;;;;;;;;;;16.50;55.90;;;;;;5018414;28;19919;-87
2022/11/01 12:01:42;;;;;;;;;;;16.50;55.90;;;;;;5029139;28;19913;-89
2022/11/01 12:10:36;;;;;;;;;;;16.60;55.60;;;;;;5026651;28;19939;-88
2022/11/01 12:13:05;;;;;;;;;;;16.60;55.60;;;;;;5022592;28;19917;-88
2022/11/01 12:15:34;;;;;;;;;;;16.70;54.70;;;;;;5031981;28;20450;-88
2022/11/01 12:18:12;;;;;;;;;;;16.70;55.20;;;;;;5052244;28;19909;-86
2022/11/01 12:20:38;;;;;;;;;;;16.80;55.00;;;;;;5029049;28;19927;-86
2022/11/01 12:23:06;;;;;;;;;;;16.90;54.80;;;;;;5020689;28;19917;-87
2022/11/01 12:25:34;;;;;;;;;;;16.80;53.90;;;;;;5046379;28;21202;-86
2022/11/01 12:28:04;;;;;;;;;;;16.70;54.60;;;;;;5030998;28;20016;-86
2022/11/01 12:30:32;;;;;;;;;;;16.80;54.30;;;;;;5028073;28;19920;-87
2022/11/01 12:33:07;;;;;;;;;;;16.80;54.30;;;;;;5033323;28;19921;-87
2022/11/01 12:35:36;;;;;;;;;;;16.80;54.00;;;;;;5033567;28;20203;-86
2022/11/01 12:38:09;;;;;;;;;;;16.70;54.20;;;;;;5027399;28;19928;-88
2022/11/01 12:40:41;;;;;;;;;;;16.70;55.50;;;;;;5023111;28;19913;-89
2022/11/01 12:43:13;;;;;;;;;;;16.80;54.90;;;;;;5029844;28;19917;-87
2022/11/01 12:45:45;;;;;;;;;;;16.80;55.10;;;;;;5037003;28;20294;-86
2022/11/01 12:48:14;;;;;;;;;;;16.90;55.30;;;;;;5049098;28;22036;-87
2022/11/01 12:50:43;;;;;;;;;;;17.00;54.00;;;;;;5035410;28;20603;-88
2022/11/01 12:53:11;;;;;;;;;;;16.90;54.70;;;;;;5029852;28;20360;-88
2022/11/01 12:55:38;;;;;;;;;;;16.90;54.70;;;;;;5029946;28;19913;-86
2022/11/01 12:58:05;;;;;;;;;;;16.90;54.50;;;;;;5032473;28;20389;-86
2022/11/01 13:00:49;;;;;;;;;;;16.90;54.60;;;;;;5023427;28;20000;-88
2022/11/01 13:03:24;;;;;;;;;;;16.90;54.70;;;;;;5033542;28;20489;-85
2022/11/01 13:05:58;;;;;;;;;;;16.80;54.70;;;;;;5028724;28;19920;-85
2022/11/01 13:08:30;;;;;;;;;;;16.90;55.10;;;;;;5025021;28;19963;-88
2022/11/01 13:10:59;;;;;;;;;;;17.00;54.40;;;;;;5028231;28;19921;-88
2022/11/01 13:13:24;;;;;;;;;;;17.00;54.30;;;;;;5029944;28;19913;-87
2022/11/01 13:16:16;;;;;;;;;;;16.90;54.90;;;;;;5042016;28;19975;-87
2022/11/01 13:18:50;;;;;;;;;;;16.80;55.20;;;;;;5030659;28;20015;-88
2022/11/01 13:21:36;;;;;;;;;;;16.90;55.00;;;;;;5046365;28;19925;-86
2022/11/01 13:24:21;;;;;;;;;;;16.80;55.00;;;;;;5027339;28;19924;-86
2022/11/01 13:27:03;;;;;;;;;;;16.80;55.60;;;;;;5035847;28;19981;-86
2022/11/01 13:29:34;;;;;;;;;;;16.90;54.70;;;;;;5022595;28;19923;-87
2022/11/01 13:32:00;;;;;;;;;;;16.80;55.10;;;;;;5022390;28;19913;-88
2022/11/01 13:34:26;;;;;;;;;;;16.80;54.80;;;;;;5033156;28;19917;-85
2022/11/01 13:37:03;;;;;;;;;;;16.80;54.30;;;;;;5032861;28;21002;-86
2022/11/01 13:39:37;;;;;;;;;;;16.80;54.50;;;;;;5038440;28;19921;-87
2022/11/01 13:42:05;;;;;;;;;;;16.80;54.60;;;;;;5027440;28;19924;-86
2022/11/01 13:44:37;;;;;;;;;;;16.90;54.20;;;;;;5046674;28;19921;-86
2022/11/01 13:47:20;;;;;;;;;;;16.90;54.00;;;;;;5027104;28;19921;-87
2022/11/01 13:50:03;;;;;;;;;;;16.80;54.60;;;;;;5026384;28;19913;-85
2022/11/01 13:52:30;;;;;;;;;;;16.80;54.60;;;;;;5021425;28;19918;-88
2022/11/01 13:55:06;;;;;;;;;;;16.80;54.80;;;;;;5024596;28;19948;-86
2022/11/01 13:57:33;;;;;;;;;;;16.80;55.20;;;;;;5023789;28;19920;-86
2022/11/01 14:00:00;;;;;;;;;;;16.80;55.40;;;;;;5029026;28;19921;-86
2022/11/01 14:02:25;;;;;;;;;;;16.70;55.50;;;;;;5033708;28;19921;-87
2022/11/01 14:04:57;;;;;;;;;;;16.60;55.50;;;;;;5050276;28;19914;-85
2022/11/01 14:07:25;;;;;;;;;;;16.70;55.60;;;;;;5029221;28;19924;-86
2022/11/01 14:09:51;;;;;;;;;;;16.60;56.00;;;;;;5036325;28;19917;-86
2022/11/01 14:12:31;;;;;;;;;;;16.70;55.50;;;;;;5030517;28;20389;-86
2022/11/01 14:15:13;;;;;;;;;;;16.70;56.00;;;;;;5030257;28;19925;-87
2022/11/01 14:17:51;;;;;;;;;;;16.60;56.20;;;;;;5031455;28;20283;-87
2022/11/01 14:20:26;;;;;;;;;;;16.60;55.70;;;;;;5030553;28;19971;-85
2022/11/01 14:22:53;;;;;;;;;;;16.70;54.70;;;;;;5028636;28;19921;-87
2022/11/01 14:25:21;;;;;;;;;;;16.50;55.70;;;;;;5029536;28;19913;-90
2022/11/01 14:27:48;;;;;;;;;;;16.60;54.60;;;;;;5064942;22;19929;-84
2022/11/01 14:30:14;;;;;;;;;;;16.60;55.10;;;;;;5013471;28;19921;-84
2022/11/01 14:32:40;;;;;;;;;;;16.60;54.90;;;;;;5045286;28;19983;-84
2022/11/01 14:35:14;;;;;;;;;;;16.60;55.20;;;;;;5045524;28;19913;-85
2022/11/01 14:37:46;;;;;;;;;;;16.60;55.20;;;;;;5011518;28;20008;-85
2022/11/01 14:40:15;;;;;;;;;;;16.60;55.10;;;;;;5013930;28;19914;-84